createdAt,value
2022-09-22T00:01:53.013Z,94.60
2022-09-22T00:04:23.753Z,94.60
2022-09-22T00:06:56.390Z,95.21
2022-09-22T00:09:24.177Z,95.30
2022-09-22T00:11:55.768Z,95.28
2022-09-22T00:14:54.046Z,94.69
2022-09-22T00:17:27.855Z,95.29
2022-09-22T00:19:56.654Z,95.20
2022-09-22T00:22:24.770Z,95.00
2022-09-22T00:24:52.882Z,94.58
2022-09-22T00:27:25.599Z,94.29
2022-09-22T00:30:04.585Z,94.11
2022-09-22T00:32:46.046Z,93.76
2022-09-22T00:35:17.612Z,93.61
2022-09-22T00:37:45.660Z,93.93
2022-09-22T00:40:21.782Z,93.75
2022-09-22T00:43:14.150Z,93.65
2022-09-22T00:45:46.998Z,94.08
2022-09-22T00:48:23.266Z,94.42
2022-09-22T00:50:54.938Z,94.85
2022-09-22T00:53:27.069Z,95.26
2022-09-22T00:57:15.833Z,96.18
2022-09-22T00:59:54.797Z,97.11
2022-09-22T01:02:34.896Z,99.03
2022-09-22T01:05:06.795Z,99.71
2022-09-22T01:07:37.221Z,100.00
2022-09-22T01:10:05.604Z,100.00
2022-09-22T01:12:37.063Z,100.00
2022-09-22T01:15:48.564Z,100.00
2022-09-22T01:19:36.464Z,100.00
2022-09-22T01:22:37.910Z,100.00
2022-09-22T01:25:55.084Z,100.00
2022-09-22T01:28:54.161Z,100.00
2022-09-22T01:31:34.002Z,100.00
2022-09-22T01:34:14.474Z,100.00
2022-09-22T01:37:05.600Z,100.00
2022-09-22T01:40:06.023Z,100.00
2022-09-22T01:43:08.679Z,100.00
2022-09-22T01:45:46.756Z,100.00
2022-09-22T01:48:46.365Z,100.00
2022-09-22T01:52:00.897Z,100.00
2022-09-22T01:54:55.603Z,100.00
2022-09-22T01:58:07.030Z,100.00
2022-09-22T02:00:42.083Z,100.00
2022-09-22T02:04:06.417Z,100.00
2022-09-22T02:06:50.544Z,100.00
2022-09-22T02:09:52.633Z,100.00
2022-09-22T02:12:28.388Z,100.00
2022-09-22T02:15:30.132Z,100.00
2022-09-22T02:19:06.264Z,100.00
2022-09-22T02:21:59.436Z,100.00
2022-09-22T02:24:44.300Z,100.00
2022-09-22T02:27:36.493Z,100.00
2022-09-22T02:30:18.235Z,100.00
2022-09-22T02:32:59.900Z,100.00
2022-09-22T02:35:33.418Z,100.00
2022-09-22T02:39:08.163Z,100.00
2022-09-22T02:42:27.175Z,100.00
2022-09-22T02:45:27.741Z,100.00
2022-09-22T02:48:23.097Z,100.00
2022-09-22T02:51:16.540Z,100.00
2022-09-22T02:53:50.398Z,100.00
2022-09-22T02:56:21.395Z,100.00
2022-09-22T02:58:49.833Z,100.00
2022-09-22T03:01:20.400Z,100.00
2022-09-22T03:04:00.410Z,100.00
2022-09-22T03:06:49.317Z,100.00
2022-09-22T03:09:23.061Z,100.00
2022-09-22T03:11:50.634Z,100.00
2022-09-22T03:14:21.125Z,100.00
2022-09-22T03:16:52.068Z,100.00
2022-09-22T03:19:19.673Z,100.00
2022-09-22T03:21:50.406Z,100.00
2022-09-22T03:24:20.925Z,100.00
2022-09-22T03:26:51.355Z,100.00
2022-09-22T03:29:22.307Z,100.00
2022-09-22T03:32:01.933Z,100.00
2022-09-22T03:34:32.937Z,100.00
2022-09-22T03:37:15.110Z,100.00
2022-09-22T03:39:52.119Z,100.00
2022-09-22T03:42:32.982Z,100.00
2022-09-22T03:45:16.839Z,100.00
2022-09-22T03:47:54.357Z,100.00
2022-09-22T03:50:25.261Z,100.00
2022-09-22T03:52:53.190Z,100.00
2022-09-22T03:55:25.435Z,100.00
2022-09-22T03:58:03.880Z,100.00
2022-09-22T04:00:34.591Z,100.00
2022-09-22T04:06:24.566Z,100.00
2022-09-22T04:08:56.065Z,100.00
2022-09-22T04:11:27.445Z,100.00
2022-09-22T04:14:04.994Z,100.00
2022-09-22T04:16:36.088Z,100.00
2022-09-22T04:19:05.798Z,100.00
2022-09-22T04:21:33.725Z,100.00
2022-09-22T04:24:07.640Z,100.00
2022-09-22T04:26:35.527Z,100.00
2022-09-22T04:29:03.148Z,100.00
2022-09-22T04:31:33.504Z,100.00
2022-09-22T04:34:25.884Z,100.00
2022-09-22T04:36:56.575Z,100.00
2022-09-22T04:39:33.364Z,100.00
2022-09-22T04:42:10.136Z,100.00
2022-09-22T04:44:47.603Z,100.00
2022-09-22T04:47:56.582Z,100.00
2022-09-22T04:50:28.688Z,100.00
2022-09-22T04:52:57.421Z,100.00
2022-09-22T04:55:26.525Z,100.00
2022-09-22T04:57:58.082Z,100.00
2022-09-22T05:00:47.140Z,100.00
2022-09-22T05:03:22.364Z,100.00
2022-09-22T05:05:51.815Z,100.00
2022-09-22T05:08:37.858Z,100.00
2022-09-22T05:11:17.238Z,100.00
2022-09-22T05:14:06.193Z,100.00
2022-09-22T05:16:37.227Z,100.00
2022-09-22T05:19:04.934Z,100.00
2022-09-22T05:21:36.005Z,100.00
2022-09-22T05:24:07.331Z,100.00
2022-09-22T05:26:38.160Z,100.00
2022-09-22T05:29:06.423Z,100.00
2022-09-22T05:31:51.701Z,100.00
2022-09-22T05:34:25.277Z,100.00
2022-09-22T05:37:08.139Z,100.00
2022-09-22T05:39:39.084Z,100.00
2022-09-22T05:42:48.039Z,100.00
2022-09-22T05:45:28.263Z,100.00
2022-09-22T05:47:59.883Z,100.00
2022-09-22T05:50:31.514Z,100.00
2022-09-22T05:56:08.557Z,100.00
2022-09-22T05:58:39.248Z,100.00
2022-09-22T06:01:10.185Z,100.00
2022-09-22T06:03:38.201Z,100.00
2022-09-22T06:06:09.240Z,100.00
2022-09-22T06:08:49.400Z,100.00
2022-09-22T06:11:17.046Z,99.55
2022-09-22T06:13:44.846Z,99.50
2022-09-22T06:16:19.525Z,99.45
2022-09-22T06:18:50.573Z,99.23
2022-09-22T06:21:18.922Z,99.33
2022-09-22T06:23:46.414Z,100.00
2022-09-22T06:26:20.100Z,100.00
2022-09-22T06:29:19.959Z,100.00
2022-09-22T06:31:58.194Z,100.00
2022-09-22T06:34:28.579Z,100.00
2022-09-22T06:37:09.482Z,100.00
2022-09-22T06:39:40.008Z,100.00
2022-09-22T06:42:20.171Z,98.97
2022-09-22T06:44:47.994Z,98.20
2022-09-22T06:47:19.272Z,97.71
2022-09-22T06:49:50.240Z,97.35
2022-09-22T06:52:21.087Z,96.86
2022-09-22T06:55:00.927Z,96.20
2022-09-22T06:57:59.734Z,96.26
2022-09-22T07:00:33.083Z,96.60
2022-09-22T07:03:24.474Z,95.84
2022-09-22T07:06:29.265Z,95.57
2022-09-22T07:09:01.541Z,94.80
2022-09-22T07:11:56.752Z,94.92
2022-09-22T07:14:29.744Z,94.46
2022-09-22T07:16:57.255Z,94.56
2022-09-22T07:19:25.009Z,93.99
2022-09-22T07:21:53.036Z,93.81
2022-09-22T07:24:20.530Z,93.21
2022-09-22T07:26:48.074Z,91.93
2022-09-22T07:29:16.849Z,91.63
2022-09-22T07:31:44.711Z,91.83
2022-09-22T07:34:13.058Z,92.42
2022-09-22T07:36:40.972Z,92.75
2022-09-22T07:39:11.198Z,92.12
2022-09-22T07:41:43.149Z,92.29
2022-09-22T07:44:34.435Z,91.94
2022-09-22T07:47:03.469Z,90.58
2022-09-22T07:49:31.692Z,90.77
2022-09-22T07:51:59.717Z,90.54
2022-09-22T07:54:28.228Z,90.17
2022-09-22T07:56:58.700Z,89.07
2022-09-22T07:59:27.587Z,89.34
2022-09-22T08:01:55.774Z,88.96
2022-09-22T08:04:24.452Z,88.30
2022-09-22T08:06:55.433Z,90.19
2022-09-22T08:09:25.338Z,90.52
2022-09-22T08:11:53.832Z,89.74
2022-09-22T08:14:23.251Z,90.14
2022-09-22T08:16:53.895Z,90.68
2022-09-22T08:19:24.193Z,89.68
2022-09-22T08:21:54.469Z,89.24
2022-09-22T08:24:23.682Z,88.84
2022-09-22T08:26:55.991Z,88.92
2022-09-22T08:29:24.761Z,89.51
2022-09-22T08:31:54.172Z,89.05
2022-09-22T08:34:22.553Z,89.20
2022-09-22T08:36:50.515Z,89.06
2022-09-22T08:39:18.954Z,88.82
2022-09-22T08:42:14.423Z,87.99
2022-09-22T08:45:27.165Z,86.18
2022-09-22T08:48:21.720Z,87.33
2022-09-22T08:51:12.524Z,87.02
2022-09-22T08:53:48.235Z,87.21
2022-09-22T08:56:32.272Z,85.81
2022-09-22T08:59:23.221Z,85.94
2022-09-22T09:02:28.469Z,85.50
2022-09-22T09:05:37.705Z,84.78
2022-09-22T09:08:34.911Z,84.88
2022-09-22T09:11:16.780Z,84.69
2022-09-22T09:14:30.545Z,82.97
2022-09-22T09:17:21.131Z,82.80
2022-09-22T09:20:03.377Z,83.02
2022-09-22T09:22:43.719Z,83.44
2022-09-22T09:25:42.087Z,83.02
2022-09-22T09:28:27.520Z,84.07
2022-09-22T09:31:11.079Z,83.12
2022-09-22T09:34:00.632Z,84.04
2022-09-22T09:36:37.912Z,84.54
2022-09-22T09:39:32.940Z,83.65
2022-09-22T09:42:08.863Z,82.17
2022-09-22T09:44:40.209Z,82.13
2022-09-22T09:47:23.998Z,82.71
2022-09-22T09:49:53.169Z,82.86
2022-09-22T09:52:21.322Z,81.61
2022-09-22T09:54:49.872Z,80.72
2022-09-22T09:57:19.265Z,81.85
2022-09-22T10:00:08.577Z,79.93
2022-09-22T10:02:57.241Z,80.67
2022-09-22T10:05:27.256Z,80.89
2022-09-22T10:08:03.137Z,79.53
2022-09-22T10:10:38.027Z,78.52
2022-09-22T10:13:05.518Z,78.09
2022-09-22T10:15:36.274Z,77.98
2022-09-22T10:18:24.333Z,77.69
2022-09-22T10:21:20.081Z,76.38
2022-09-22T10:24:00.330Z,78.34
2022-09-22T10:26:31.463Z,74.74
2022-09-22T10:29:20.950Z,74.94
2022-09-22T10:32:16.919Z,74.77
2022-09-22T10:34:51.469Z,74.56
2022-09-22T10:37:27.841Z,74.20
2022-09-22T10:40:03.543Z,74.23
2022-09-22T10:42:45.468Z,71.48
2022-09-22T10:45:19.439Z,70.90
2022-09-22T10:48:03.601Z,69.12
2022-09-22T10:50:51.213Z,69.76
2022-09-22T10:53:29.502Z,68.42
2022-09-22T10:56:27.999Z,70.72
2022-09-22T10:59:20.116Z,71.46
2022-09-22T11:02:15.523Z,71.46
2022-09-22T11:05:03.002Z,70.33
2022-09-22T11:08:14.107Z,69.87
2022-09-22T11:11:51.561Z,68.79
2022-09-22T11:15:03.923Z,66.64
2022-09-22T11:17:45.532Z,66.67
2022-09-22T11:20:32.376Z,65.97
2022-09-22T11:23:21.312Z,66.32
2022-09-22T11:26:08.025Z,66.71
2022-09-22T11:28:57.142Z,65.02
2022-09-22T11:31:44.188Z,64.90
2022-09-22T11:34:45.456Z,64.95
2022-09-22T11:37:44.472Z,64.90
2022-09-22T11:40:41.381Z,62.58
2022-09-22T11:43:38.881Z,61.95
2022-09-22T11:46:47.741Z,63.25
2022-09-22T11:49:48.492Z,62.71
2022-09-22T11:52:34.383Z,62.17
2022-09-22T11:55:13.119Z,61.35
2022-09-22T11:57:49.297Z,60.33
2022-09-22T12:00:23.212Z,60.46
2022-09-22T12:03:12.574Z,60.33
2022-09-22T12:05:58.633Z,59.08
2022-09-22T12:08:35.695Z,60.60
2022-09-22T12:11:06.894Z,59.85
2022-09-22T12:13:37.283Z,61.01
2022-09-22T12:16:30.993Z,60.95
2022-09-22T12:19:13.477Z,61.30
2022-09-22T12:22:08.611Z,61.33
2022-09-22T12:24:37.572Z,60.19
2022-09-22T12:27:20.348Z,56.37
2022-09-22T12:30:00.301Z,55.98
2022-09-22T12:32:50.571Z,56.74
2022-09-22T12:35:31.478Z,57.36
2022-09-22T12:38:02.461Z,55.96
2022-09-22T12:40:41.658Z,56.18
2022-09-22T12:43:21.213Z,54.44
2022-09-22T12:45:51.454Z,54.83
2022-09-22T12:48:27.492Z,54.92
2022-09-22T12:51:31.315Z,51.54
2022-09-22T12:54:23.673Z,53.78
2022-09-22T12:57:20.518Z,49.96
2022-09-22T13:00:13.805Z,50.38
2022-09-22T13:02:47.354Z,50.43
2022-09-22T13:05:36.839Z,50.64
2022-09-22T13:08:04.758Z,51.53
2022-09-22T13:10:32.260Z,51.61
2022-09-22T13:13:11.396Z,51.76
2022-09-22T13:15:51.101Z,52.41
2022-09-22T13:18:39.453Z,53.61
2022-09-22T13:21:13.310Z,54.48
2022-09-22T13:23:49.675Z,55.67
2022-09-22T13:26:34.575Z,56.77
2022-09-22T13:29:19.843Z,58.93
2022-09-22T13:31:55.546Z,58.84
2022-09-22T13:34:37.404Z,60.19
2022-09-22T13:37:34.685Z,61.42
2022-09-22T13:40:02.822Z,62.27
2022-09-22T13:42:32.787Z,63.06
2022-09-22T13:45:21.524Z,62.93
2022-09-22T13:47:50.652Z,62.47
2022-09-22T13:50:22.659Z,62.89
2022-09-22T13:52:52.329Z,63.65
2022-09-22T13:55:29.395Z,63.88
2022-09-22T13:57:59.294Z,64.05
2022-09-22T14:01:08.767Z,64.27
2022-09-22T14:03:37.676Z,64.07
2022-09-22T14:06:10.581Z,64.03
2022-09-22T14:08:38.658Z,62.39
2022-09-22T14:11:36.553Z,63.62
2022-09-22T14:14:06.924Z,63.95
2022-09-22T14:17:00.731Z,64.28
2022-09-22T14:19:49.099Z,62.83
2022-09-22T14:22:26.589Z,63.87
2022-09-22T14:25:00.965Z,65.42
2022-09-22T14:27:55.346Z,65.14
2022-09-22T14:30:32.800Z,65.11
2022-09-22T14:33:04.013Z,61.14
2022-09-22T14:35:37.416Z,60.57
2022-09-22T14:38:15.470Z,58.36
2022-09-22T14:40:54.323Z,56.59
2022-09-22T14:43:37.918Z,56.53
2022-09-22T14:46:33.948Z,55.38
2022-09-22T14:49:44.524Z,54.49
2022-09-22T14:52:32.761Z,53.20
2022-09-22T14:55:12.174Z,53.66
2022-09-22T14:57:46.484Z,53.39
2022-09-22T15:00:35.372Z,53.32
2022-09-22T15:03:28.189Z,53.88
2022-09-22T15:06:06.279Z,53.63
2022-09-22T15:08:34.421Z,53.08
2022-09-22T15:11:03.406Z,54.29
2022-09-22T15:13:45.778Z,53.97
2022-09-22T15:16:38.351Z,52.14
2022-09-22T15:19:11.024Z,51.13
2022-09-22T15:21:46.138Z,50.55
2022-09-22T15:24:27.047Z,50.22
2022-09-22T15:26:57.428Z,50.73
2022-09-22T15:29:25.168Z,51.34
2022-09-22T15:31:52.769Z,51.64
2022-09-22T15:34:20.676Z,51.59
2022-09-22T15:36:50.050Z,53.22
2022-09-22T15:39:22.464Z,54.96
2022-09-22T15:41:52.145Z,56.20
2022-09-22T15:44:19.853Z,58.56
2022-09-22T15:46:54.409Z,60.64
2022-09-22T15:49:26.485Z,62.30
2022-09-22T15:51:56.674Z,63.59
2022-09-22T15:54:26.167Z,65.11
2022-09-22T15:56:56.338Z,66.50
2022-09-22T15:59:28.541Z,67.87
2022-09-22T16:01:57.182Z,68.88
2022-09-22T16:04:30.071Z,70.20
2022-09-22T16:07:04.045Z,70.88
2022-09-22T16:09:31.795Z,70.55
2022-09-22T16:11:59.755Z,71.12
2022-09-22T16:14:27.322Z,71.20
2022-09-22T16:16:54.954Z,72.28
2022-09-22T16:19:22.872Z,71.94
2022-09-22T16:21:54.236Z,71.76
2022-09-22T16:24:22.693Z,73.18
2022-09-22T16:26:51.947Z,74.84
2022-09-22T16:29:19.595Z,77.45
2022-09-22T16:31:47.252Z,77.72
2022-09-22T16:34:15.065Z,79.09
2022-09-22T16:36:44.587Z,79.85
2022-09-22T16:39:12.030Z,82.38
2022-09-22T16:41:47.567Z,86.57
2022-09-22T16:44:16.124Z,89.92
2022-09-22T16:46:44.029Z,92.07
2022-09-22T16:49:16.358Z,91.62
2022-09-22T16:51:49.818Z,90.88
2022-09-22T16:54:19.675Z,86.75
2022-09-22T16:56:50.551Z,83.85
2022-09-22T16:59:22.810Z,79.84
2022-09-22T17:01:51.255Z,75.45
2022-09-22T17:04:19.564Z,78.05
2022-09-22T17:06:48.252Z,79.17
2022-09-22T17:09:17.238Z,72.03
2022-09-22T17:11:49.210Z,76.89
2022-09-22T17:14:24.365Z,79.00
2022-09-22T17:16:56.664Z,80.65
2022-09-22T17:19:27.849Z,80.89
2022-09-22T17:21:56.759Z,80.45
2022-09-22T17:24:27.255Z,80.84
2022-09-22T17:26:58.843Z,80.82
2022-09-22T17:29:31.501Z,80.43
2022-09-22T17:32:08.402Z,80.47
2022-09-22T17:34:38.301Z,81.55
2022-09-22T17:37:06.320Z,82.54
2022-09-22T17:39:33.835Z,83.57
2022-09-22T17:42:01.766Z,85.21
2022-09-22T17:44:33.573Z,86.59
2022-09-22T17:47:20.051Z,87.67
2022-09-22T17:50:06.670Z,88.76
2022-09-22T17:52:52.959Z,89.45
2022-09-22T17:55:25.329Z,86.81
2022-09-22T17:57:54.524Z,84.48
2022-09-22T18:00:24.610Z,86.50
2022-09-22T18:02:55.065Z,85.29
2022-09-22T18:05:26.679Z,87.05
2022-09-22T18:07:58.588Z,89.29
2022-09-22T18:10:32.338Z,90.75
2022-09-22T18:13:02.053Z,91.61
2022-09-22T18:15:30.470Z,92.09
2022-09-22T18:17:58.299Z,90.75
2022-09-22T18:20:27.374Z,91.42
2022-09-22T18:22:57.897Z,92.51
2022-09-22T18:25:25.725Z,91.53
2022-09-22T18:27:54.595Z,90.66
2022-09-22T18:30:22.280Z,89.51
2022-09-22T18:32:49.914Z,90.92
2022-09-22T18:35:18.585Z,92.56
2022-09-22T18:37:46.430Z,92.85
2022-09-22T18:40:14.043Z,93.92
2022-09-22T18:42:43.565Z,92.00
2022-09-22T18:45:12.561Z,93.87
2022-09-22T18:47:43.284Z,92.48
2022-09-22T18:50:12.407Z,94.01
2022-09-22T18:52:43.108Z,95.49
2022-09-22T18:55:14.152Z,95.64
2022-09-22T18:57:42.669Z,95.47
2022-09-22T19:00:13.796Z,95.30
2022-09-22T19:02:41.839Z,95.01
2022-09-22T19:05:10.223Z,95.17
2022-09-22T19:07:42.959Z,94.94
2022-09-22T19:10:22.030Z,94.60
2022-09-22T19:12:50.254Z,94.75
2022-09-22T19:15:19.577Z,95.54
2022-09-22T19:17:49.531Z,95.95
2022-09-22T19:20:23.828Z,96.59
2022-09-22T19:22:52.969Z,96.52
2022-09-22T19:25:22.221Z,96.70
2022-09-22T19:27:52.598Z,96.38
2022-09-22T19:30:24.795Z,96.53
2022-09-22T19:32:54.982Z,97.13
2022-09-22T19:35:25.090Z,97.34
2022-09-22T19:37:53.662Z,97.86
2022-09-22T19:40:25.126Z,97.86
2022-09-22T19:42:54.525Z,98.09
2022-09-22T19:45:24.056Z,98.33
2022-09-22T19:47:52.941Z,98.89
2022-09-22T19:50:20.820Z,99.30
2022-09-22T19:52:48.654Z,99.58
2022-09-22T19:55:20.757Z,99.63
2022-09-22T19:57:49.974Z,99.60
2022-09-22T20:00:18.243Z,99.61
2022-09-22T20:02:46.192Z,99.55
2022-09-22T20:05:21.466Z,99.44
2022-09-22T20:07:49.670Z,98.96
2022-09-22T20:10:21.162Z,98.59
2022-09-22T20:12:50.343Z,98.06
2022-09-22T20:15:18.944Z,98.09
2022-09-22T20:17:47.820Z,97.89
2022-09-22T20:20:23.664Z,97.58
2022-09-22T20:23:04.151Z,97.83
2022-09-22T20:25:33.207Z,98.26
2022-09-22T20:28:01.291Z,98.25
2022-09-22T20:30:29.039Z,98.78
2022-09-22T20:32:56.594Z,99.28
2022-09-22T20:35:24.461Z,99.13
2022-09-22T20:37:52.345Z,99.02
2022-09-22T20:40:21.614Z,98.81
2022-09-22T20:42:49.957Z,98.28
2022-09-22T20:45:21.030Z,98.60
2022-09-22T20:47:49.734Z,99.17
2022-09-22T20:50:17.611Z,99.62
2022-09-22T20:52:45.195Z,99.75
2022-09-22T20:55:12.732Z,99.59
2022-09-22T20:57:41.227Z,99.80
2022-09-22T21:00:10.009Z,99.90
2022-09-22T21:02:38.509Z,99.31
2022-09-22T21:05:06.581Z,98.96
2022-09-22T21:07:34.167Z,100.00
2022-09-22T21:10:20.474Z,100.00
2022-09-22T21:12:50.739Z,99.47
2022-09-22T21:15:19.929Z,99.85
2022-09-22T21:17:49.905Z,99.98
2022-09-22T21:20:17.769Z,99.84
2022-09-22T21:22:45.371Z,98.80
2022-09-22T21:25:12.955Z,98.94
2022-09-22T21:27:40.855Z,99.48
2022-09-22T21:30:08.904Z,97.82
2022-09-22T21:32:37.587Z,97.47
2022-09-22T21:35:06.228Z,97.63
2022-09-22T21:37:33.827Z,97.21
2022-09-22T21:40:01.641Z,97.26
2022-09-22T21:42:29.569Z,95.30
2022-09-22T21:44:57.094Z,95.87
2022-09-22T21:47:24.743Z,95.05
2022-09-22T21:49:52.514Z,94.86
2022-09-22T21:52:20.069Z,95.15
2022-09-22T21:54:47.544Z,95.09
2022-09-22T21:57:15.397Z,94.63
2022-09-22T21:59:42.901Z,94.05
2022-09-22T22:02:10.414Z,94.18
2022-09-22T22:04:38.242Z,94.44
2022-09-22T22:07:05.800Z,94.02
2022-09-22T22:09:33.475Z,93.86
2022-09-22T22:12:01.465Z,93.28
2022-09-22T22:14:34.976Z,92.37
2022-09-22T22:17:02.878Z,92.27
2022-09-22T22:19:31.114Z,92.78
2022-09-22T22:21:58.811Z,91.51
2022-09-22T22:24:26.649Z,91.18
2022-09-22T22:27:07.308Z,91.07
2022-09-22T22:29:38.637Z,90.89
2022-09-22T22:32:09.496Z,90.82
2022-09-22T22:34:37.749Z,90.41
2022-09-22T22:37:08.900Z,90.04
2022-09-22T22:39:37.399Z,89.95
2022-09-22T22:42:05.833Z,90.21
2022-09-22T22:44:35.243Z,89.49
2022-09-22T22:47:02.796Z,89.90
2022-09-22T22:49:30.642Z,89.51
2022-09-22T22:51:58.234Z,89.94
2022-09-22T22:54:26.172Z,90.13
2022-09-22T22:56:53.959Z,90.65
2022-09-22T22:59:21.429Z,91.11
2022-09-22T23:01:49.263Z,89.20
2022-09-22T23:04:17.128Z,89.16
2022-09-22T23:06:45.018Z,88.51
2022-09-22T23:09:16.204Z,87.95
2022-09-22T23:11:46.366Z,88.46
2022-09-22T23:14:16.037Z,89.01
2022-09-22T23:16:46.997Z,90.26
2022-09-22T23:19:17.922Z,89.70
2022-09-22T23:21:46.641Z,90.37
2022-09-22T23:24:19.112Z,91.34
2022-09-22T23:26:47.363Z,90.69
2022-09-22T23:29:15.225Z,91.62
2022-09-22T23:31:42.816Z,90.11
2022-09-22T23:34:10.542Z,90.01
2022-09-22T23:36:39.634Z,89.86
2022-09-22T23:39:07.269Z,90.07
2022-09-22T23:41:36.807Z,90.63
2022-09-22T23:44:06.846Z,89.84
2022-09-22T23:46:34.909Z,90.35
2022-09-22T23:49:02.782Z,90.57
2022-09-22T23:51:31.171Z,89.28
2022-09-22T23:53:59.118Z,88.68
2022-09-22T23:56:27.039Z,89.00
2022-09-22T23:58:54.629Z,88.23
